General WM J Fox Airfield
KWJF : now visible

Airfield :











YOU CAN JOIN US ON...

 
LOGIN :

Register | Disclaimer

   EN    FR    IT 

 









Legend :    VFR   Marginal VFR   IFR   Intensive IFR   Very Intensive IFR
Visi :
Ceiling :
>= 8 km
>= 3000ft
5 to 8 km
1000 to 3000 ft
1500m to 5 km
500 to 1000 ft
800 to 1500m
200 to 500 ft
< 800m
< 200 ft
Symbols :   Thunderstorms  Fog  Heavy snow  Heavy precipitations  Wind > 20 kt






- Airport Elevation : 2351 ft


KWJF - General WM J Fox

CURRENT METAR :
  • 261656Z 07003KT 10SM CLR 12/M10 A3046 RMK AO2 SLP324 T01171100

EXPIRED METARs :
  • 261556Z 29004KT 10SM CLR 06/M08 A3047 RMK AO2 SLP329 T00611078
  • 261456Z 25003KT 10SM CLR 01/M10 A3044 RMK AO2 SLP318 T00061100 51013

TAF KWJF
Valid from the 26 at 12:00 until the 27 at 12:00 UTC


261125Z 2612/2712 VRB03KT P6SM SKC
FM261800 07012KT P6SM SKC
FM270100 10007KT P6SM SKC



MET'MAP, your aeronautical weather chart ! - Copyright ORBIFLY December 2007 - Disclaimer

ORBIFLY MET'MAP TEAM :

Programming & Development : Alexandra Zaïnal
Concept & original design : Baudouin d'Aumeries
Assistance for programming : Marc-Olivier Méhu
Technical & hardware support : Manuel Goepfert

Contact : metmap@orbifly.com




SOURCES & CREDITS :

   NOAA       Earth
Advisory